logo
Search for airport 
image banner adimage banner adimage banner ad
image banner ad

OPSD - Skardu Int'l

Located in Skardu, Pakistan

ICAO - OPSD, IATA - KDU

Data provided by Airmate  

General information

Coordinates: N35°20'22" E75°32'29"
Elevation is 7301 feet MSL.
 
View others Airports in Northern Areas

Operational data

Special qualification required
Current time UTC:
Current local time:
Weather at : - ( 0 km )
METAR: CYIN 180128Z AUTO VRB02KT 9SM FEW032 06/01 A2993 RMK SLP154
View NOTAMs / SUP AIP / TFR affecting this airport [VIEW]
Communications frequencies: [VIEW]

Runways:

RWY identifierQFULength (ft)Width (ft)SurfaceLDA (ft)
14L147°1199898UNK
32R327°1199898UNK
14R147°11995148UNK
32L327°11995148UNK

Airport contact information

Address: Skardu Pakistan

Satellite view of OPSD